Ana Sayfa
METAR-TAF:

METAR-TAF

Havaalanları :

Porter County Municipal Airport

Valparaiso, Indiana, Amerika Birleşik Devletleri

Enlem: 41-27-11N, Boylam: 086-59-53W, yükseklik: 234 m

Güncel hava durumu gözlemi

Rapor saat 22:56 UTC de 21 dakika önce yapıldı.
Rüzgar güneybatıdan 9 kt
Sıcaklık -2°C
Nem 93%
Basınç 1013 hPa
Görüş mesafesi: 4.8 km
300 ft yükseklikte çok bulutlu
Pus

METAR: KVPZ 262256Z AUTO 23009KT 3SM BR OVC003 M02/M03 A2990 RMK AO2 SLP132 T10171028

Saat: 17:17 (23:17 UTC)


TAF: eksik

4.000'den fazla havaalanı için hava durumu gözlemleri ve tahminleri (METAR ve TAF raporları).

Kullanılabilir istasyonlar harita üzerinde sarı ve kırmızı noktalarla gösterilir.

İstasyonun adını görmek için fareyi noktanın üzerinde gezdirin.

Sonrasında hava gözlem ve tahminlerini görmek için tıklayın.

Haritayı değiştirmek için: yaklaştırmak için siyah artı işaretli yeşil düğmeye ve uzaklaştırmak için de eksi işaretli düğmeye hızla tıklayın; bitişik haritalar için yeşil okları kullanın.


METAR-TAF: